sensor_id;sensor_type;location;lat;lon;timestamp;temperature;humidity
15160;DHT22;7680;48.800;9.680;2023-05-07T00:01:31;12.90;99.90
15160;DHT22;7680;48.800;9.680;2023-05-07T00:04:05;12.90;99.90
15160;DHT22;7680;48.800;9.680;2023-05-07T00:06:39;12.90;99.90
15160;DHT22;7680;48.800;9.680;2023-05-07T00:09:12;12.90;99.90
15160;DHT22;7680;48.800;9.680;2023-05-07T00:11:45;12.80;99.90
15160;DHT22;7680;48.800;9.680;2023-05-07T00:14:18;12.80;99.90
15160;DHT22;7680;48.800;9.680;2023-05-07T00:16:52;12.80;99.90
15160;DHT22;7680;48.800;9.680;2023-05-07T00:19:26;12.80;99.90
15160;DHT22;7680;48.800;9.680;2023-05-07T00:21:59;12.70;99.90
15160;DHT22;7680;48.800;9.680;2023-05-07T00:24:33;12.70;99.90
15160;DHT22;7680;48.800;9.680;2023-05-07T00:27:06;12.70;99.90
15160;DHT22;7680;48.800;9.680;2023-05-07T00:29:39;12.60;99.90
15160;DHT22;7680;48.800;9.680;2023-05-07T00:32:11;12.70;99.90
15160;DHT22;7680;48.800;9.680;2023-05-07T00:34:46;12.70;99.90
15160;DHT22;7680;48.800;9.680;2023-05-07T00:37:19;12.70;99.90
15160;DHT22;7680;48.800;9.680;2023-05-07T00:39:52;12.70;99.90
15160;DHT22;7680;48.800;9.680;2023-05-07T00:42:25;12.70;99.90
15160;DHT22;7680;48.800;9.680;2023-05-07T00:44:59;12.60;99.90
15160;DHT22;7680;48.800;9.680;2023-05-07T00:47:32;12.60;99.90
15160;DHT22;7680;48.800;9.680;2023-05-07T00:50:08;12.70;99.90
15160;DHT22;7680;48.800;9.680;2023-05-07T00:52:44;12.60;99.90
15160;DHT22;7680;48.800;9.680;2023-05-07T00:55:18;12.60;99.90
15160;DHT22;7680;48.800;9.680;2023-05-07T00:57:51;12.60;99.90
15160;DHT22;7680;48.800;9.680;2023-05-07T01:00:25;12.60;99.90
15160;DHT22;7680;48.800;9.680;2023-05-07T01:02:58;12.60;99.90
15160;DHT22;7680;48.800;9.680;2023-05-07T01:05:33;12.50;99.90
15160;DHT22;7680;48.800;9.680;2023-05-07T01:08:07;12.40;99.90
15160;DHT22;7680;48.800;9.680;2023-05-07T01:10:40;12.40;99.90
15160;DHT22;7680;48.800;9.680;2023-05-07T01:13:15;12.50;99.90
15160;DHT22;7680;48.800;9.680;2023-05-07T01:15:48;12.40;99.90
15160;DHT22;7680;48.800;9.680;2023-05-07T01:18:21;12.40;99.90
15160;DHT22;7680;48.800;9.680;2023-05-07T01:20:57;12.30;99.90
15160;DHT22;7680;48.800;9.680;2023-05-07T01:23:33;12.40;99.90
15160;DHT22;7680;48.800;9.680;2023-05-07T01:26:07;12.20;99.90
15160;DHT22;7680;48.800;9.680;2023-05-07T01:28:40;12.20;99.90
15160;DHT22;7680;48.800;9.680;2023-05-07T01:31:14;12.10;99.90
15160;DHT22;7680;48.800;9.680;2023-05-07T01:33:48;12.00;99.90
15160;DHT22;7680;48.800;9.680;2023-05-07T01:36:22;12.10;99.90
15160;DHT22;7680;48.800;9.680;2023-05-07T01:38:59;12.10;99.90
15160;DHT22;7680;48.800;9.680;2023-05-07T01:41:32;12.00;99.90
15160;DHT22;7680;48.800;9.680;2023-05-07T01:44:05;12.10;99.90
15160;DHT22;7680;48.800;9.680;2023-05-07T01:46:38;12.10;99.90
15160;DHT22;7680;48.800;9.680;2023-05-07T01:49:12;12.10;99.90
15160;DHT22;7680;48.800;9.680;2023-05-07T01:51:45;12.10;99.90
15160;DHT22;7680;48.800;9.680;2023-05-07T01:54:19;12.10;99.90
15160;DHT22;7680;48.800;9.680;2023-05-07T01:56:53;12.10;99.90
15160;DHT22;7680;48.800;9.680;2023-05-07T01:59:26;12.00;99.90
15160;DHT22;7680;48.800;9.680;2023-05-07T02:01:59;12.00;99.90
15160;DHT22;7680;48.800;9.680;2023-05-07T02:04:32;12.00;99.90
15160;DHT22;7680;48.800;9.680;2023-05-07T02:07:05;12.00;99.90
15160;DHT22;7680;48.800;9.680;2023-05-07T02:09:39;12.00;99.90
15160;DHT22;7680;48.800;9.680;2023-05-07T02:12:12;12.10;99.90
15160;DHT22;7680;48.800;9.680;2023-05-07T02:14:45;12.00;99.90
15160;DHT22;7680;48.800;9.680;2023-05-07T02:17:18;12.00;99.90
15160;DHT22;7680;48.800;9.680;2023-05-07T02:19:51;12.00;99.90
15160;DHT22;7680;48.800;9.680;2023-05-07T02:22:24;12.00;99.90
15160;DHT22;7680;48.800;9.680;2023-05-07T02:24:59;11.90;99.90
15160;DHT22;7680;48.800;9.680;2023-05-07T02:27:32;11.90;99.90
15160;DHT22;7680;48.800;9.680;2023-05-07T02:30:06;11.90;99.90
15160;DHT22;7680;48.800;9.680;2023-05-07T02:32:40;11.90;99.90
15160;DHT22;7680;48.800;9.680;2023-05-07T02:35:13;11.90;99.90
15160;DHT22;7680;48.800;9.680;2023-05-07T02:37:46;11.80;99.90
15160;DHT22;7680;48.800;9.680;2023-05-07T02:40:20;11.80;99.90
15160;DHT22;7680;48.800;9.680;2023-05-07T02:42:53;11.80;99.90
15160;DHT22;7680;48.800;9.680;2023-05-07T02:45:26;11.80;99.90
15160;DHT22;7680;48.800;9.680;2023-05-07T02:47:59;11.70;99.90
15160;DHT22;7680;48.800;9.680;2023-05-07T02:50:32;11.80;99.90
15160;DHT22;7680;48.800;9.680;2023-05-07T02:53:05;11.80;99.90
15160;DHT22;7680;48.800;9.680;2023-05-07T02:55:40;11.70;99.90
15160;DHT22;7680;48.800;9.680;2023-05-07T02:58:13;11.70;99.90
15160;DHT22;7680;48.800;9.680;2023-05-07T03:00:46;11.70;99.90
15160;DHT22;7680;48.800;9.680;2023-05-07T03:03:19;11.70;99.90
15160;DHT22;7680;48.800;9.680;2023-05-07T03:05:52;11.60;99.90
15160;DHT22;7680;48.800;9.680;2023-05-07T03:08:26;11.50;99.90
15160;DHT22;7680;48.800;9.680;2023-05-07T03:11:00;11.60;99.90
15160;DHT22;7680;48.800;9.680;2023-05-07T03:13:33;11.50;99.90
15160;DHT22;7680;48.800;9.680;2023-05-07T03:16:06;11.50;99.90
15160;DHT22;7680;48.800;9.680;2023-05-07T03:18:39;11.40;99.90
15160;DHT22;7680;48.800;9.680;2023-05-07T03:21:12;11.40;99.90
15160;DHT22;7680;48.800;9.680;2023-05-07T03:23:45;11.40;99.90
15160;DHT22;7680;48.800;9.680;2023-05-07T03:26:19;11.40;99.90
15160;DHT22;7680;48.800;9.680;2023-05-07T03:28:52;11.40;99.90
15160;DHT22;7680;48.800;9.680;2023-05-07T03:31:25;11.30;99.90
15160;DHT22;7680;48.800;9.680;2023-05-07T03:33:59;11.30;99.90
15160;DHT22;7680;48.800;9.680;2023-05-07T03:36:32;11.10;99.90
15160;DHT22;7680;48.800;9.680;2023-05-07T03:39:05;11.10;99.90
15160;DHT22;7680;48.800;9.680;2023-05-07T03:41:39;11.10;99.90
15160;DHT22;7680;48.800;9.680;2023-05-07T03:44:12;11.10;99.90
15160;DHT22;7680;48.800;9.680;2023-05-07T03:46:45;11.00;99.90
15160;DHT22;7680;48.800;9.680;2023-05-07T03:49:18;11.00;99.90
15160;DHT22;7680;48.800;9.680;2023-05-07T03:51:51;11.00;99.90
15160;DHT22;7680;48.800;9.680;2023-05-07T03:54:24;10.90;99.90
15160;DHT22;7680;48.800;9.680;2023-05-07T03:56:59;10.90;99.90
15160;DHT22;7680;48.800;9.680;2023-05-07T03:59:32;10.90;99.90
15160;DHT22;7680;48.800;9.680;2023-05-07T04:02:05;10.90;99.90
15160;DHT22;7680;48.800;9.680;2023-05-07T04:04:38;10.90;99.90
15160;DHT22;7680;48.800;9.680;2023-05-07T04:07:11;11.00;99.90
15160;DHT22;7680;48.800;9.680;2023-05-07T04:09:44;11.00;99.90
15160;DHT22;7680;48.800;9.680;2023-05-07T04:12:18;11.00;99.90
15160;DHT22;7680;48.800;9.680;2023-05-07T04:14:51;10.90;99.90
15160;DHT22;7680;48.800;9.680;2023-05-07T04:17:24;10.90;99.90
15160;DHT22;7680;48.800;9.680;2023-05-07T04:19:58;10.90;99.90
15160;DHT22;7680;48.800;9.680;2023-05-07T04:22:31;10.90;99.90
15160;DHT22;7680;48.800;9.680;2023-05-07T04:25:05;10.90;99.90
15160;DHT22;7680;48.800;9.680;2023-05-07T04:27:40;10.90;99.90
15160;DHT22;7680;48.800;9.680;2023-05-07T04:30:14;10.90;99.90
15160;DHT22;7680;48.800;9.680;2023-05-07T04:32:47;10.90;99.90
15160;DHT22;7680;48.800;9.680;2023-05-07T04:35:20;11.00;99.90
15160;DHT22;7680;48.800;9.680;2023-05-07T04:37:53;11.00;99.90
15160;DHT22;7680;48.800;9.680;2023-05-07T04:40:26;11.10;99.90
15160;DHT22;7680;48.800;9.680;2023-05-07T04:43:01;11.20;99.90
15160;DHT22;7680;48.800;9.680;2023-05-07T04:45:34;11.20;99.90
15160;DHT22;7680;48.800;9.680;2023-05-07T04:48:07;11.30;99.90
15160;DHT22;7680;48.800;9.680;2023-05-07T04:50:41;11.30;99.90
15160;DHT22;7680;48.800;9.680;2023-05-07T04:53:14;11.30;99.90
15160;DHT22;7680;48.800;9.680;2023-05-07T04:55:47;11.40;99.90
15160;DHT22;7680;48.800;9.680;2023-05-07T04:58:21;11.40;99.90
15160;DHT22;7680;48.800;9.680;2023-05-07T05:00:54;11.50;99.90
15160;DHT22;7680;48.800;9.680;2023-05-07T05:03:28;11.60;99.90
15160;DHT22;7680;48.800;9.680;2023-05-07T05:06:01;11.70;99.90
15160;DHT22;7680;48.800;9.680;2023-05-07T05:08:34;11.70;99.90
15160;DHT22;7680;48.800;9.680;2023-05-07T05:11:07;11.80;99.90
15160;DHT22;7680;48.800;9.680;2023-05-07T05:13:42;11.90;99.90
15160;DHT22;7680;48.800;9.680;2023-05-07T05:16:15;11.90;99.90
15160;DHT22;7680;48.800;9.680;2023-05-07T05:18:48;11.90;99.90
15160;DHT22;7680;48.800;9.680;2023-05-07T05:21:23;12.00;99.90
15160;DHT22;7680;48.800;9.680;2023-05-07T05:23:56;12.00;99.90
15160;DHT22;7680;48.800;9.680;2023-05-07T05:26:29;12.10;99.90
15160;DHT22;7680;48.800;9.680;2023-05-07T05:29:03;12.20;99.90
15160;DHT22;7680;48.800;9.680;2023-05-07T05:31:36;12.40;99.90
15160;DHT22;7680;48.800;9.680;2023-05-07T05:34:09;12.50;99.90
15160;DHT22;7680;48.800;9.680;2023-05-07T05:36:42;12.60;99.90
15160;DHT22;7680;48.800;9.680;2023-05-07T05:39:15;12.70;99.90
15160;DHT22;7680;48.800;9.680;2023-05-07T05:41:48;12.80;99.90
15160;DHT22;7680;48.800;9.680;2023-05-07T05:44:22;12.80;99.90
15160;DHT22;7680;48.800;9.680;2023-05-07T05:46:55;12.90;99.90
15160;DHT22;7680;48.800;9.680;2023-05-07T05:49:30;13.00;99.90
15160;DHT22;7680;48.800;9.680;2023-05-07T05:52:04;13.40;99.90
15160;DHT22;7680;48.800;9.680;2023-05-07T05:54:38;13.90;99.90
15160;DHT22;7680;48.800;9.680;2023-05-07T05:57:11;14.50;99.90
15160;DHT22;7680;48.800;9.680;2023-05-07T05:59:46;15.20;99.90
15160;DHT22;7680;48.800;9.680;2023-05-07T06:02:19;15.40;99.90
15160;DHT22;7680;48.800;9.680;2023-05-07T06:04:52;15.50;99.90
15160;DHT22;7680;48.800;9.680;2023-05-07T06:07:25;15.50;99.90
15160;DHT22;7680;48.800;9.680;2023-05-07T06:09:58;16.00;99.90
15160;DHT22;7680;48.800;9.680;2023-05-07T06:12:31;16.40;99.90
15160;DHT22;7680;48.800;9.680;2023-05-07T06:15:06;16.80;99.90
15160;DHT22;7680;48.800;9.680;2023-05-07T06:17:40;17.20;99.90
15160;DHT22;7680;48.800;9.680;2023-05-07T06:20:13;17.60;99.90
15160;DHT22;7680;48.800;9.680;2023-05-07T06:22:46;18.00;99.90
15160;DHT22;7680;48.800;9.680;2023-05-07T06:25:19;18.20;99.90
15160;DHT22;7680;48.800;9.680;2023-05-07T06:27:52;18.40;99.90
15160;DHT22;7680;48.800;9.680;2023-05-07T06:30:26;18.80;99.90
15160;DHT22;7680;48.800;9.680;2023-05-07T06:32:59;19.00;99.90
15160;DHT22;7680;48.800;9.680;2023-05-07T06:35:32;19.30;99.90
15160;DHT22;7680;48.800;9.680;2023-05-07T06:38:05;19.40;99.90
15160;DHT22;7680;48.800;9.680;2023-05-07T06:40:38;19.60;99.90
15160;DHT22;7680;48.800;9.680;2023-05-07T06:43:11;19.90;99.90
15160;DHT22;7680;48.800;9.680;2023-05-07T06:45:45;19.80;99.90
15160;DHT22;7680;48.800;9.680;2023-05-07T06:48:18;19.70;99.90
15160;DHT22;7680;48.800;9.680;2023-05-07T06:50:51;19.20;99.90
15160;DHT22;7680;48.800;9.680;2023-05-07T06:53:26;18.90;99.90
15160;DHT22;7680;48.800;9.680;2023-05-07T06:56:00;18.60;99.90
15160;DHT22;7680;48.800;9.680;2023-05-07T06:58:33;18.60;99.90
15160;DHT22;7680;48.800;9.680;2023-05-07T07:01:07;18.60;99.90
15160;DHT22;7680;48.800;9.680;2023-05-07T07:03:41;18.70;99.90
15160;DHT22;7680;48.800;9.680;2023-05-07T07:06:14;18.80;99.90
15160;DHT22;7680;48.800;9.680;2023-05-07T07:08:47;18.90;99.90
15160;DHT22;7680;48.800;9.680;2023-05-07T07:11:20;18.90;99.90
15160;DHT22;7680;48.800;9.680;2023-05-07T07:13:53;19.20;99.90
15160;DHT22;7680;48.800;9.680;2023-05-07T07:16:28;19.60;99.90
15160;DHT22;7680;48.800;9.680;2023-05-07T07:19:01;19.70;99.90
15160;DHT22;7680;48.800;9.680;2023-05-07T07:21:34;20.00;99.90
15160;DHT22;7680;48.800;9.680;2023-05-07T07:24:07;20.30;99.90
15160;DHT22;7680;48.800;9.680;2023-05-07T07:26:40;20.30;99.90
15160;DHT22;7680;48.800;9.680;2023-05-07T07:29:14;20.30;99.90
15160;DHT22;7680;48.800;9.680;2023-05-07T07:31:49;20.40;99.90
15160;DHT22;7680;48.800;9.680;2023-05-07T07:34:22;20.60;99.90
15160;DHT22;7680;48.800;9.680;2023-05-07T07:36:55;20.70;99.90
15160;DHT22;7680;48.800;9.680;2023-05-07T07:39:28;21.20;99.90
15160;DHT22;7680;48.800;9.680;2023-05-07T07:42:01;21.60;99.90
15160;DHT22;7680;48.800;9.680;2023-05-07T07:44:34;21.80;99.90
15160;DHT22;7680;48.800;9.680;2023-05-07T07:47:08;22.20;99.90
15160;DHT22;7680;48.800;9.680;2023-05-07T07:49:41;22.30;98.20
15160;DHT22;7680;48.800;9.680;2023-05-07T07:52:14;22.70;99.10
15160;DHT22;7680;48.800;9.680;2023-05-07T07:54:47;23.20;98.30
15160;DHT22;7680;48.800;9.680;2023-05-07T07:57:20;23.30;96.40
15160;DHT22;7680;48.800;9.680;2023-05-07T07:59:53;23.30;96.90
15160;DHT22;7680;48.800;9.680;2023-05-07T08:02:28;23.40;97.20
15160;DHT22;7680;48.800;9.680;2023-05-07T08:05:02;23.50;96.40
15160;DHT22;7680;48.800;9.680;2023-05-07T08:07:35;23.40;95.60
15160;DHT22;7680;48.800;9.680;2023-05-07T08:10:09;23.30;96.50
15160;DHT22;7680;48.800;9.680;2023-05-07T08:12:42;23.10;95.60
15160;DHT22;7680;48.800;9.680;2023-05-07T08:15:16;22.60;96.80
15160;DHT22;7680;48.800;9.680;2023-05-07T08:17:51;23.20;96.90
15160;DHT22;7680;48.800;9.680;2023-05-07T08:20:24;23.60;96.20
15160;DHT22;7680;48.800;9.680;2023-05-07T08:22:57;23.60;95.60
15160;DHT22;7680;48.800;9.680;2023-05-07T08:25:30;23.90;95.80
15160;DHT22;7680;48.800;9.680;2023-05-07T08:28:03;23.80;95.20
15160;DHT22;7680;48.800;9.680;2023-05-07T08:30:38;23.90;94.70
15160;DHT22;7680;48.800;9.680;2023-05-07T08:33:13;24.00;95.60
15160;DHT22;7680;48.800;9.680;2023-05-07T08:35:46;24.20;95.00
15160;DHT22;7680;48.800;9.680;2023-05-07T08:38:19;24.40;96.30
15160;DHT22;7680;48.800;9.680;2023-05-07T08:40:52;24.70;94.50
15160;DHT22;7680;48.800;9.680;2023-05-07T08:43:26;24.90;94.20
15160;DHT22;7680;48.800;9.680;2023-05-07T08:46:01;25.00;93.40
15160;DHT22;7680;48.800;9.680;2023-05-07T08:48:36;24.90;94.10
15160;DHT22;7680;48.800;9.680;2023-05-07T08:51:13;25.10;93.50
15160;DHT22;7680;48.800;9.680;2023-05-07T08:53:46;24.90;93.20
15160;DHT22;7680;48.800;9.680;2023-05-07T08:56:21;24.90;92.60
15160;DHT22;7680;48.800;9.680;2023-05-07T08:58:54;25.10;92.70
15160;DHT22;7680;48.800;9.680;2023-05-07T09:01:28;24.90;92.70
15160;DHT22;7680;48.800;9.680;2023-05-07T09:04:03;25.00;92.20
15160;DHT22;7680;48.800;9.680;2023-05-07T09:06:37;24.70;91.80
15160;DHT22;7680;48.800;9.680;2023-05-07T09:09:14;25.10;91.10
15160;DHT22;7680;48.800;9.680;2023-05-07T09:11:56;25.40;89.70
15160;DHT22;7680;48.800;9.680;2023-05-07T09:14:31;25.00;91.10
15160;DHT22;7680;48.800;9.680;2023-05-07T09:17:04;25.50;90.00
15160;DHT22;7680;48.800;9.680;2023-05-07T09:19:38;25.60;91.70
15160;DHT22;7680;48.800;9.680;2023-05-07T09:22:11;25.70;88.90
15160;DHT22;7680;48.800;9.680;2023-05-07T09:24:48;25.70;91.20
15160;DHT22;7680;48.800;9.680;2023-05-07T09:27:21;25.70;88.40
15160;DHT22;7680;48.800;9.680;2023-05-07T09:29:54;25.80;89.20
15160;DHT22;7680;48.800;9.680;2023-05-07T09:32:27;26.00;85.40
15160;DHT22;7680;48.800;9.680;2023-05-07T09:35:04;25.60;87.00
15160;DHT22;7680;48.800;9.680;2023-05-07T09:37:37;25.10;85.20
15160;DHT22;7680;48.800;9.680;2023-05-07T09:40:20;25.40;86.10
15160;DHT22;7680;48.800;9.680;2023-05-07T09:42:54;25.50;84.30
15160;DHT22;7680;48.800;9.680;2023-05-07T09:45:28;25.40;86.00
15160;DHT22;7680;48.800;9.680;2023-05-07T09:48:02;25.30;87.30
15160;DHT22;7680;48.800;9.680;2023-05-07T09:50:46;25.30;89.20
15160;DHT22;7680;48.800;9.680;2023-05-07T09:53:22;25.40;88.00
15160;DHT22;7680;48.800;9.680;2023-05-07T09:55:56;25.40;86.20
15160;DHT22;7680;48.800;9.680;2023-05-07T09:58:30;25.40;86.50
15160;DHT22;7680;48.800;9.680;2023-05-07T10:01:04;25.30;87.30
15160;DHT22;7680;48.800;9.680;2023-05-07T10:03:40;25.50;85.80
15160;DHT22;7680;48.800;9.680;2023-05-07T10:06:15;25.00;88.70
15160;DHT22;7680;48.800;9.680;2023-05-07T10:08:49;25.00;89.70
15160;DHT22;7680;48.800;9.680;2023-05-07T10:11:23;25.10;90.10
15160;DHT22;7680;48.800;9.680;2023-05-07T10:13:57;25.30;88.80
15160;DHT22;7680;48.800;9.680;2023-05-07T10:16:31;25.10;86.10
15160;DHT22;7680;48.800;9.680;2023-05-07T10:19:09;24.80;85.60
15160;DHT22;7680;48.800;9.680;2023-05-07T10:21:48;25.00;84.80
15160;DHT22;7680;48.800;9.680;2023-05-07T10:24:26;25.10;87.10
15160;DHT22;7680;48.800;9.680;2023-05-07T10:27:01;25.00;88.40
15160;DHT22;7680;48.800;9.680;2023-05-07T10:29:42;25.00;88.40
15160;DHT22;7680;48.800;9.680;2023-05-07T10:32:33;25.30;86.50
15160;DHT22;7680;48.800;9.680;2023-05-07T10:35:16;25.10;87.40
15160;DHT22;7680;48.800;9.680;2023-05-07T10:37:53;25.30;87.40
15160;DHT22;7680;48.800;9.680;2023-05-07T10:40:26;25.20;87.70
15160;DHT22;7680;48.800;9.680;2023-05-07T10:43:00;24.80;87.70
15160;DHT22;7680;48.800;9.680;2023-05-07T10:45:34;24.90;89.10
15160;DHT22;7680;48.800;9.680;2023-05-07T10:48:09;25.20;87.40
15160;DHT22;7680;48.800;9.680;2023-05-07T10:51:20;25.10;87.40
15160;DHT22;7680;48.800;9.680;2023-05-07T10:54:25;24.80;90.20
15160;DHT22;7680;48.800;9.680;2023-05-07T10:57:32;24.90;89.90
15160;DHT22;7680;48.800;9.680;2023-05-07T11:00:40;24.90;90.00
15160;DHT22;7680;48.800;9.680;2023-05-07T11:03:14;24.80;88.90
15160;DHT22;7680;48.800;9.680;2023-05-07T11:05:47;25.30;89.10
15160;DHT22;7680;48.800;9.680;2023-05-07T11:08:20;25.10;90.00
15160;DHT22;7680;48.800;9.680;2023-05-07T11:10:56;25.50;87.50
15160;DHT22;7680;48.800;9.680;2023-05-07T11:13:43;25.30;86.30
15160;DHT22;7680;48.800;9.680;2023-05-07T11:16:18;25.20;87.30
15160;DHT22;7680;48.800;9.680;2023-05-07T11:18:53;25.20;85.90
15160;DHT22;7680;48.800;9.680;2023-05-07T11:21:34;25.10;86.90
15160;DHT22;7680;48.800;9.680;2023-05-07T11:24:08;24.90;87.90
15160;DHT22;7680;48.800;9.680;2023-05-07T11:26:45;25.00;87.70
15160;DHT22;7680;48.800;9.680;2023-05-07T11:29:21;24.90;88.20
15160;DHT22;7680;48.800;9.680;2023-05-07T11:31:55;24.70;88.20
15160;DHT22;7680;48.800;9.680;2023-05-07T11:34:29;24.90;86.80
15160;DHT22;7680;48.800;9.680;2023-05-07T11:37:03;24.80;88.10
15160;DHT22;7680;48.800;9.680;2023-05-07T11:39:36;24.80;87.50
15160;DHT22;7680;48.800;9.680;2023-05-07T11:42:29;24.70;89.40
15160;DHT22;7680;48.800;9.680;2023-05-07T11:45:05;24.80;87.40
15160;DHT22;7680;48.800;9.680;2023-05-07T11:47:41;24.70;86.10
15160;DHT22;7680;48.800;9.680;2023-05-07T11:50:14;24.80;86.70
15160;DHT22;7680;48.800;9.680;2023-05-07T11:52:51;24.90;87.70
15160;DHT22;7680;48.800;9.680;2023-05-07T11:55:24;25.20;86.00
15160;DHT22;7680;48.800;9.680;2023-05-07T11:57:59;25.20;85.00
15160;DHT22;7680;48.800;9.680;2023-05-07T12:00:32;25.20;86.00
15160;DHT22;7680;48.800;9.680;2023-05-07T12:03:05;25.20;87.10
15160;DHT22;7680;48.800;9.680;2023-05-07T12:05:39;25.10;86.90
15160;DHT22;7680;48.800;9.680;2023-05-07T12:08:14;25.40;86.70
15160;DHT22;7680;48.800;9.680;2023-05-07T12:10:49;25.50;86.00
15160;DHT22;7680;48.800;9.680;2023-05-07T12:13:25;25.40;85.40
15160;DHT22;7680;48.800;9.680;2023-05-07T12:15:58;25.20;85.90
15160;DHT22;7680;48.800;9.680;2023-05-07T12:18:33;25.60;85.10
15160;DHT22;7680;48.800;9.680;2023-05-07T12:21:07;25.20;84.80
15160;DHT22;7680;48.800;9.680;2023-05-07T12:23:41;24.90;85.90
15160;DHT22;7680;48.800;9.680;2023-05-07T12:26:14;24.90;86.60
15160;DHT22;7680;48.800;9.680;2023-05-07T12:28:48;25.00;86.40
15160;DHT22;7680;48.800;9.680;2023-05-07T12:31:21;24.60;86.50
15160;DHT22;7680;48.800;9.680;2023-05-07T12:33:55;24.50;89.40
15160;DHT22;7680;48.800;9.680;2023-05-07T12:36:36;24.60;86.60
15160;DHT22;7680;48.800;9.680;2023-05-07T12:39:10;24.90;87.00
15160;DHT22;7680;48.800;9.680;2023-05-07T12:41:53;24.90;86.50
15160;DHT22;7680;48.800;9.680;2023-05-07T12:44:31;24.70;86.80
15160;DHT22;7680;48.800;9.680;2023-05-07T12:47:05;24.70;86.10
15160;DHT22;7680;48.800;9.680;2023-05-07T12:49:38;24.70;87.20
15160;DHT22;7680;48.800;9.680;2023-05-07T12:52:11;24.60;88.30
15160;DHT22;7680;48.800;9.680;2023-05-07T12:54:45;24.50;88.70
15160;DHT22;7680;48.800;9.680;2023-05-07T12:57:19;24.70;86.40
15160;DHT22;7680;48.800;9.680;2023-05-07T12:59:57;24.40;89.00
15160;DHT22;7680;48.800;9.680;2023-05-07T13:02:32;24.50;87.10
15160;DHT22;7680;48.800;9.680;2023-05-07T13:05:06;24.30;88.50
15160;DHT22;7680;48.800;9.680;2023-05-07T13:07:41;24.20;88.40
15160;DHT22;7680;48.800;9.680;2023-05-07T13:10:26;24.20;89.00
15160;DHT22;7680;48.800;9.680;2023-05-07T13:13:00;24.00;90.20
15160;DHT22;7680;48.800;9.680;2023-05-07T13:15:34;24.00;90.30
15160;DHT22;7680;48.800;9.680;2023-05-07T13:18:07;24.20;88.00
15160;DHT22;7680;48.800;9.680;2023-05-07T13:20:42;24.20;87.90
15160;DHT22;7680;48.800;9.680;2023-05-07T13:23:15;24.10;88.00
15160;DHT22;7680;48.800;9.680;2023-05-07T13:25:49;24.10;88.30
15160;DHT22;7680;48.800;9.680;2023-05-07T13:28:24;24.10;86.70
15160;DHT22;7680;48.800;9.680;2023-05-07T13:30:59;23.70;88.70
15160;DHT22;7680;48.800;9.680;2023-05-07T13:33:32;23.70;89.10
15160;DHT22;7680;48.800;9.680;2023-05-07T13:36:05;23.70;89.00
15160;DHT22;7680;48.800;9.680;2023-05-07T13:38:39;23.70;88.70
15160;DHT22;7680;48.800;9.680;2023-05-07T13:41:12;23.50;90.20
15160;DHT22;7680;48.800;9.680;2023-05-07T13:43:45;23.30;90.70
15160;DHT22;7680;48.800;9.680;2023-05-07T13:46:20;23.20;90.20
15160;DHT22;7680;48.800;9.680;2023-05-07T13:48:54;23.10;90.30
15160;DHT22;7680;48.800;9.680;2023-05-07T13:51:27;23.00;90.90
15160;DHT22;7680;48.800;9.680;2023-05-07T13:54:00;22.90;91.40
15160;DHT22;7680;48.800;9.680;2023-05-07T13:56:33;22.90;91.00
15160;DHT22;7680;48.800;9.680;2023-05-07T13:59:06;22.90;91.10
15160;DHT22;7680;48.800;9.680;2023-05-07T14:01:41;22.90;94.10
15160;DHT22;7680;48.800;9.680;2023-05-07T14:04:14;22.70;94.90
15160;DHT22;7680;48.800;9.680;2023-05-07T14:06:47;22.70;95.80
15160;DHT22;7680;48.800;9.680;2023-05-07T14:09:20;22.50;96.40
15160;DHT22;7680;48.800;9.680;2023-05-07T14:11:53;22.30;97.30
15160;DHT22;7680;48.800;9.680;2023-05-07T14:14:26;22.30;95.80
15160;DHT22;7680;48.800;9.680;2023-05-07T14:17:01;22.10;95.70
15160;DHT22;7680;48.800;9.680;2023-05-07T14:19:34;22.10;96.10
15160;DHT22;7680;48.800;9.680;2023-05-07T14:22:07;21.90;97.20
15160;DHT22;7680;48.800;9.680;2023-05-07T14:24:40;21.80;97.30
15160;DHT22;7680;48.800;9.680;2023-05-07T14:27:13;21.70;97.60
15160;DHT22;7680;48.800;9.680;2023-05-07T14:29:46;21.60;98.20
15160;DHT22;7680;48.800;9.680;2023-05-07T14:32:23;21.50;97.80
15160;DHT22;7680;48.800;9.680;2023-05-07T14:34:56;21.40;97.50
15160;DHT22;7680;48.800;9.680;2023-05-07T14:37:29;21.40;97.50
15160;DHT22;7680;48.800;9.680;2023-05-07T14:40:03;21.20;97.30
15160;DHT22;7680;48.800;9.680;2023-05-07T14:42:36;21.20;97.80
15160;DHT22;7680;48.800;9.680;2023-05-07T14:45:10;21.20;97.70
15160;DHT22;7680;48.800;9.680;2023-05-07T14:47:47;21.20;97.40
15160;DHT22;7680;48.800;9.680;2023-05-07T14:50:20;21.20;97.60
15160;DHT22;7680;48.800;9.680;2023-05-07T14:52:53;21.20;99.40
15160;DHT22;7680;48.800;9.680;2023-05-07T14:55:26;21.10;99.90
15160;DHT22;7680;48.800;9.680;2023-05-07T14:57:59;20.90;99.90
15160;DHT22;7680;48.800;9.680;2023-05-07T15:00:33;20.60;99.90
15160;DHT22;7680;48.800;9.680;2023-05-07T15:03:09;20.40;99.90
15160;DHT22;7680;48.800;9.680;2023-05-07T15:05:43;19.90;99.90
15160;DHT22;7680;48.800;9.680;2023-05-07T15:08:16;19.60;99.90
15160;DHT22;7680;48.800;9.680;2023-05-07T15:10:49;19.20;99.90
15160;DHT22;7680;48.800;9.680;2023-05-07T15:13:22;18.80;99.90
15160;DHT22;7680;48.800;9.680;2023-05-07T15:15:55;18.50;99.90
15160;DHT22;7680;48.800;9.680;2023-05-07T15:18:30;18.20;99.90
15160;DHT22;7680;48.800;9.680;2023-05-07T15:21:03;17.80;99.90
15160;DHT22;7680;48.800;9.680;2023-05-07T15:23:36;17.60;99.90
15160;DHT22;7680;48.800;9.680;2023-05-07T15:26:09;17.40;99.90
15160;DHT22;7680;48.800;9.680;2023-05-07T15:28:42;17.20;99.90
15160;DHT22;7680;48.800;9.680;2023-05-07T15:31:15;17.10;99.90
15160;DHT22;7680;48.800;9.680;2023-05-07T15:33:50;17.00;99.90
15160;DHT22;7680;48.800;9.680;2023-05-07T15:36:23;16.90;99.90
15160;DHT22;7680;48.800;9.680;2023-05-07T15:38:57;16.80;99.90
15160;DHT22;7680;48.800;9.680;2023-05-07T15:41:30;16.80;99.90
15160;DHT22;7680;48.800;9.680;2023-05-07T15:44:03;16.70;99.90
15160;DHT22;7680;48.800;9.680;2023-05-07T15:46:36;16.70;99.90
15160;DHT22;7680;48.800;9.680;2023-05-07T15:49:11;16.60;99.90
15160;DHT22;7680;48.800;9.680;2023-05-07T15:51:44;16.40;99.90
15160;DHT22;7680;48.800;9.680;2023-05-07T15:54:17;16.40;99.90
15160;DHT22;7680;48.800;9.680;2023-05-07T15:56:51;16.40;99.90
15160;DHT22;7680;48.800;9.680;2023-05-07T15:59:24;16.40;99.90
15160;DHT22;7680;48.800;9.680;2023-05-07T16:01:57;16.30;99.90
15160;DHT22;7680;48.800;9.680;2023-05-07T16:04:32;16.40;99.90
15160;DHT22;7680;48.800;9.680;2023-05-07T16:07:05;16.30;99.90
15160;DHT22;7680;48.800;9.680;2023-05-07T16:09:38;16.40;99.90
15160;DHT22;7680;48.800;9.680;2023-05-07T16:12:12;16.40;99.90
15160;DHT22;7680;48.800;9.680;2023-05-07T16:14:45;16.40;99.90
15160;DHT22;7680;48.800;9.680;2023-05-07T16:17:18;16.30;99.90
15160;DHT22;7680;48.800;9.680;2023-05-07T16:19:52;16.20;99.90
15160;DHT22;7680;48.800;9.680;2023-05-07T16:22:25;16.20;99.90
15160;DHT22;7680;48.800;9.680;2023-05-07T16:24:59;16.10;99.90
15160;DHT22;7680;48.800;9.680;2023-05-07T16:27:33;16.10;99.90
15160;DHT22;7680;48.800;9.680;2023-05-07T16:30:07;16.10;99.90